Time;durP1;ratioP1;P1;durP2;ratioP2;P2;SDS_P1;SDS_P2;PMS_P1;PMS_P2;Temp;Humidity;BMP_temperature;BMP_pressure;BME280_temperature;BME280_humidity;BME280_pressure;Samples;Min_cycle;Max_cycle;Signal;HPM_P1;HPM_P2
2022/06/22 00:00:44;;;;;;;;;;;19.00;99.90;;;;;;5076580;28;19908;-83
2022/06/22 00:03:11;;;;;;;;;;;18.80;99.90;;;;;;5076465;28;19909;-83
2022/06/22 00:05:38;;;;;;;;;;;18.50;99.90;;;;;;5075526;28;19904;-83
2022/06/22 00:08:06;;;;;;;;;;;18.40;99.90;;;;;;5076527;28;20268;-83
2022/06/22 00:10:37;;;;;;;;;;;18.40;99.90;;;;;;5076255;28;19904;-83
2022/06/22 00:13:04;;;;;;;;;;;18.50;99.90;;;;;;5076301;28;19904;-83
2022/06/22 00:15:34;;;;;;;;;;;18.60;99.90;;;;;;5074889;28;19905;-83
2022/06/22 00:18:02;;;;;;;;;;;18.70;99.90;;;;;;5076477;28;19999;-83
2022/06/22 00:20:29;;;;;;;;;;;18.70;99.90;;;;;;5076505;28;19904;-83
2022/06/22 00:23:00;;;;;;;;;;;18.80;99.90;;;;;;5074759;28;19905;-83
2022/06/22 00:25:31;;;;;;;;;;;18.90;99.90;;;;;;5075981;28;19987;-83
2022/06/22 00:28:15;;;;;;;;;;;18.90;99.90;;;;;;5075859;28;19908;-83
2022/06/22 00:30:45;;;;;;;;;;;18.90;99.90;;;;;;5074432;28;20368;-84
2022/06/22 00:33:16;;;;;;;;;;;18.80;99.90;;;;;;5076011;28;19948;-83
2022/06/22 00:36:08;;;;;;;;;;;18.80;99.90;;;;;;5074449;28;19904;-83
2022/06/22 00:38:33;;;;;;;;;;;18.90;99.90;;;;;;5071705;28;19950;-83
2022/06/22 00:41:03;;;;;;;;;;;18.90;99.90;;;;;;5075799;28;19904;-83
2022/06/22 00:43:30;;;;;;;;;;;18.90;99.90;;;;;;5075819;28;19904;-83
2022/06/22 00:45:57;;;;;;;;;;;18.90;99.90;;;;;;5074416;28;19904;-83
2022/06/22 00:48:28;;;;;;;;;;;18.90;99.90;;;;;;5075784;28;19957;-83
2022/06/22 00:51:04;;;;;;;;;;;18.80;99.90;;;;;;5075929;28;19905;-83
2022/06/22 00:53:41;;;;;;;;;;;18.60;99.90;;;;;;5074788;28;19908;-83
2022/06/22 00:56:25;;;;;;;;;;;18.50;99.90;;;;;;5075341;28;19995;-83
2022/06/22 00:58:51;;;;;;;;;;;18.30;99.90;;;;;;5075370;28;19916;-83
2022/06/22 01:01:22;;;;;;;;;;;18.30;99.90;;;;;;5074086;28;19905;-83
2022/06/22 01:03:59;;;;;;;;;;;18.30;99.90;;;;;;5073808;28;19989;-83
2022/06/22 01:06:24;;;;;;;;;;;18.30;99.90;;;;;;5073061;28;19912;-83
2022/06/22 01:08:58;;;;;;;;;;;18.40;99.90;;;;;;5073732;28;19915;-84
2022/06/22 01:14:17;;;;;;;;;;;18.60;99.90;;;;;;5075370;28;19912;-83
2022/06/22 01:16:45;;;;;;;;;;;18.60;99.90;;;;;;5075176;28;19904;-83
2022/06/22 01:19:31;;;;;;;;;;;18.60;99.90;;;;;;5074351;28;19987;-83
2022/06/22 01:22:06;;;;;;;;;;;18.60;99.90;;;;;;5073597;28;19994;-84
2022/06/22 01:24:42;;;;;;;;;;;18.60;99.90;;;;;;5074175;28;19904;-83
2022/06/22 01:27:14;;;;;;;;;;;18.50;99.90;;;;;;5074183;28;19915;-83
2022/06/22 01:29:47;;;;;;;;;;;18.50;99.90;;;;;;5075271;28;19908;-83
2022/06/22 01:32:20;;;;;;;;;;;18.50;99.90;;;;;;5073369;28;19912;-83
2022/06/22 01:34:47;;;;;;;;;;;18.40;99.90;;;;;;5073344;28;19912;-83
2022/06/22 01:37:16;;;;;;;;;;;18.30;99.90;;;;;;5074726;28;19904;-83
2022/06/22 01:39:41;;;;;;;;;;;18.20;99.90;;;;;;5074686;28;20304;-83
2022/06/22 01:42:13;;;;;;;;;;;18.10;99.90;;;;;;5074596;28;19904;-83
2022/06/22 01:44:46;;;;;;;;;;;18.00;99.90;;;;;;5073168;28;19904;-83
2022/06/22 01:47:18;;;;;;;;;;;18.00;99.90;;;;;;5073131;28;19954;-83
2022/06/22 01:49:44;;;;;;;;;;;18.00;99.90;;;;;;5074044;28;19950;-83
2022/06/22 01:52:30;;;;;;;;;;;18.00;99.90;;;;;;5074171;28;19908;-83
2022/06/22 01:55:00;;;;;;;;;;;18.00;99.90;;;;;;5074934;28;19943;-83
2022/06/22 01:57:30;;;;;;;;;;;18.00;99.90;;;;;;5074296;28;19905;-83
2022/06/22 02:00:06;;;;;;;;;;;18.00;99.90;;;;;;5073107;28;19911;-83
2022/06/22 02:02:36;;;;;;;;;;;18.10;99.90;;;;;;5074347;28;19905;-83
2022/06/22 02:05:10;;;;;;;;;;;18.10;99.90;;;;;;5074209;28;19995;-83
2022/06/22 02:07:44;;;;;;;;;;;18.10;99.90;;;;;;5072866;28;19995;-83
2022/06/22 02:10:23;;;;;;;;;;;18.10;99.90;;;;;;5074549;28;19904;-83
2022/06/22 02:12:54;;;;;;;;;;;18.20;99.90;;;;;;5072934;28;19912;-83
2022/06/22 02:15:27;;;;;;;;;;;18.20;99.90;;;;;;5072861;28;20029;-83
2022/06/22 02:17:53;;;;;;;;;;;18.20;99.90;;;;;;5074744;28;19910;-83
2022/06/22 02:20:19;;;;;;;;;;;18.10;99.90;;;;;;5072934;28;19904;-83
2022/06/22 02:22:45;;;;;;;;;;;18.10;99.90;;;;;;5074320;28;20353;-83
2022/06/22 02:25:11;;;;;;;;;;;18.00;99.90;;;;;;5072707;28;19961;-83
2022/06/22 02:27:36;;;;;;;;;;;18.00;99.90;;;;;;5072681;28;19912;-83
2022/06/22 02:30:02;;;;;;;;;;;17.90;99.90;;;;;;5073952;28;19905;-83
2022/06/22 02:32:30;;;;;;;;;;;17.90;99.90;;;;;;5072665;28;20360;-84
2022/06/22 02:34:56;;;;;;;;;;;17.90;99.90;;;;;;5072691;28;19904;-84
2022/06/22 02:37:24;;;;;;;;;;;18.00;99.90;;;;;;5072605;28;20268;-83
2022/06/22 02:39:55;;;;;;;;;;;17.90;99.90;;;;;;5072604;28;19904;-83
2022/06/22 02:45:08;;;;;;;;;;;17.90;99.90;;;;;;5074491;28;19911;-84
2022/06/22 02:47:46;;;;;;;;;;;17.90;99.90;;;;;;5072758;28;19909;-83
2022/06/22 02:50:17;;;;;;;;;;;17.90;99.90;;;;;;5073759;28;19904;-83
2022/06/22 02:52:54;;;;;;;;;;;17.80;99.90;;;;;;5072601;28;19904;-84
2022/06/22 02:55:21;;;;;;;;;;;17.70;99.90;;;;;;5073866;28;19999;-84
2022/06/22 02:57:48;;;;;;;;;;;17.60;99.90;;;;;;5072767;28;20289;-84
2022/06/22 03:00:15;;;;;;;;;;;17.60;99.90;;;;;;5075228;28;19904;-84
2022/06/22 03:02:41;;;;;;;;;;;17.40;99.90;;;;;;5084136;28;19908;-84
2022/06/22 03:05:07;;;;;;;;;;;17.40;99.90;;;;;;5083534;28;19957;-84
2022/06/22 03:07:37;;;;;;;;;;;17.30;99.90;;;;;;5082978;28;19908;-84
2022/06/22 03:10:04;;;;;;;;;;;17.30;99.90;;;;;;5083260;28;19926;-83
2022/06/22 03:12:29;;;;;;;;;;;17.30;99.90;;;;;;5084567;28;19926;-84
2022/06/22 03:15:00;;;;;;;;;;;17.30;99.90;;;;;;5080196;28;19904;-85
2022/06/22 03:17:28;;;;;;;;;;;17.20;99.90;;;;;;5078165;28;20402;-84
2022/06/22 03:19:57;;;;;;;;;;;17.20;99.90;;;;;;5078772;28;19904;-84
2022/06/22 03:22:29;;;;;;;;;;;17.10;99.90;;;;;;5078312;28;19904;-84
2022/06/22 03:25:10;;;;;;;;;;;17.10;99.90;;;;;;5078510;28;20007;-84
2022/06/22 03:27:38;;;;;;;;;;;17.10;99.90;;;;;;5078693;28;20280;-84
2022/06/22 03:30:06;;;;;;;;;;;17.10;99.90;;;;;;5080094;28;19931;-84
2022/06/22 03:32:32;;;;;;;;;;;17.10;99.90;;;;;;5077916;28;19923;-84
2022/06/22 03:35:00;;;;;;;;;;;17.10;99.90;;;;;;5078226;28;19904;-84
2022/06/22 03:37:30;;;;;;;;;;;17.10;99.90;;;;;;5079680;28;19912;-84
2022/06/22 03:39:58;;;;;;;;;;;17.20;99.90;;;;;;5079579;28;19904;-84
2022/06/22 03:42:26;;;;;;;;;;;17.30;99.90;;;;;;5079703;28;20414;-84
2022/06/22 03:45:01;;;;;;;;;;;17.30;99.90;;;;;;5077817;28;19908;-83
2022/06/22 03:47:41;;;;;;;;;;;17.40;99.90;;;;;;5077937;28;19908;-84
2022/06/22 03:50:19;;;;;;;;;;;17.40;99.90;;;;;;5077619;28;19911;-84
2022/06/22 03:52:55;;;;;;;;;;;17.30;99.90;;;;;;5078299;28;19943;-84
2022/06/22 03:55:23;;;;;;;;;;;17.20;99.90;;;;;;5081614;28;20014;-84
2022/06/22 03:57:51;;;;;;;;;;;17.10;99.90;;;;;;5078133;28;19995;-84
2022/06/22 04:00:17;;;;;;;;;;;17.10;99.90;;;;;;5076171;28;19904;-84
2022/06/22 04:02:43;;;;;;;;;;;17.00;99.90;;;;;;5077189;28;20003;-83
2022/06/22 04:05:18;;;;;;;;;;;16.90;99.90;;;;;;5075512;28;19950;-83
2022/06/22 04:07:45;;;;;;;;;;;16.80;99.90;;;;;;5076418;28;19957;-84
2022/06/22 04:10:27;;;;;;;;;;;16.70;99.90;;;;;;5077180;28;19904;-84
2022/06/22 04:12:54;;;;;;;;;;;16.60;99.90;;;;;;5076633;28;19904;-84
2022/06/22 04:15:24;;;;;;;;;;;16.50;99.90;;;;;;5076209;28;19909;-84
2022/06/22 04:17:51;;;;;;;;;;;16.40;99.90;;;;;;5076346;28;19904;-83
2022/06/22 04:20:26;;;;;;;;;;;16.40;99.90;;;;;;5075089;28;19905;-83
2022/06/22 04:23:12;;;;;;;;;;;16.30;99.90;;;;;;5076107;28;19904;-83
2022/06/22 04:25:38;;;;;;;;;;;16.20;99.90;;;;;;5074781;28;19911;-83
2022/06/22 04:28:05;;;;;;;;;;;16.20;99.90;;;;;;5073459;28;19916;-83
2022/06/22 04:30:43;;;;;;;;;;;16.20;99.90;;;;;;5076003;28;19915;-83
2022/06/22 04:33:15;;;;;;;;;;;16.20;99.90;;;;;;5074824;28;19912;-83
2022/06/22 04:35:49;;;;;;;;;;;16.30;99.90;;;;;;5076065;28;19912;-83
2022/06/22 04:38:21;;;;;;;;;;;16.40;99.90;;;;;;5075582;28;20383;-83
2022/06/22 04:40:52;;;;;;;;;;;16.40;99.90;;;;;;5074523;28;19904;-83
2022/06/22 04:43:18;;;;;;;;;;;16.50;99.90;;;;;;5074598;28;19942;-84
2022/06/22 04:45:45;;;;;;;;;;;16.60;99.90;;;;;;5075624;28;19982;-83
2022/06/22 04:48:19;;;;;;;;;;;16.60;99.90;;;;;;5075710;28;19912;-83
2022/06/22 04:50:46;;;;;;;;;;;16.70;99.90;;;;;;5075672;28;20384;-83
2022/06/22 04:53:16;;;;;;;;;;;16.80;99.90;;;;;;5075916;28;19975;-83
2022/06/22 04:55:42;;;;;;;;;;;16.90;99.90;;;;;;5075808;28;19904;-83
2022/06/22 04:58:15;;;;;;;;;;;16.90;99.90;;;;;;5075511;28;20406;-83
2022/06/22 05:00:42;;;;;;;;;;;16.90;99.90;;;;;;5074252;28;20368;-83
2022/06/22 05:03:13;;;;;;;;;;;16.90;99.90;;;;;;5074019;28;19904;-83
2022/06/22 05:05:38;;;;;;;;;;;16.90;99.90;;;;;;5074522;28;20380;-83
2022/06/22 05:08:20;;;;;;;;;;;17.00;99.90;;;;;;5075210;28;19909;-84
2022/06/22 05:10:48;;;;;;;;;;;17.00;99.90;;;;;;5075486;28;20280;-84
2022/06/22 05:13:14;;;;;;;;;;;17.00;99.90;;;;;;5076119;28;20360;-84
2022/06/22 05:15:41;;;;;;;;;;;17.00;99.90;;;;;;5075894;28;19904;-84
2022/06/22 05:18:18;;;;;;;;;;;17.10;99.90;;;;;;5075020;28;19953;-83
2022/06/22 05:20:46;;;;;;;;;;;17.10;99.90;;;;;;5076160;28;19974;-83
2022/06/22 05:23:13;;;;;;;;;;;17.10;99.90;;;;;;5075787;28;20283;-83
2022/06/22 05:25:41;;;;;;;;;;;17.20;99.90;;;;;;5074640;28;19911;-83
2022/06/22 05:28:07;;;;;;;;;;;17.30;99.90;;;;;;5074614;28;19970;-83
2022/06/22 05:30:37;;;;;;;;;;;17.40;99.90;;;;;;5075465;28;20438;-84
2022/06/22 05:33:06;;;;;;;;;;;17.40;99.90;;;;;;5076193;28;19983;-84
2022/06/22 05:35:35;;;;;;;;;;;17.50;99.90;;;;;;5074361;28;20315;-84
2022/06/22 05:38:02;;;;;;;;;;;17.60;99.90;;;;;;5075683;28;19999;-84
2022/06/22 05:40:29;;;;;;;;;;;17.80;99.90;;;;;;5073885;28;19904;-84
2022/06/22 05:42:55;;;;;;;;;;;17.90;99.90;;;;;;5075712;28;19905;-84
2022/06/22 05:45:24;;;;;;;;;;;18.10;99.90;;;;;;5073980;28;19954;-84
2022/06/22 05:47:51;;;;;;;;;;;18.20;99.90;;;;;;5075210;28;20372;-84
2022/06/22 05:50:26;;;;;;;;;;;18.40;99.90;;;;;;5075914;28;19909;-84
2022/06/22 05:52:54;;;;;;;;;;;18.60;99.90;;;;;;5075241;28;19911;-84
2022/06/22 05:55:27;;;;;;;;;;;18.60;99.90;;;;;;5074056;28;19999;-84
2022/06/22 05:58:06;;;;;;;;;;;18.70;99.90;;;;;;5073824;28;19904;-84
2022/06/22 06:00:52;;;;;;;;;;;18.70;99.90;;;;;;5073753;28;20349;-84
2022/06/22 06:03:17;;;;;;;;;;;18.70;99.90;;;;;;5074623;28;20034;-84
2022/06/22 06:05:49;;;;;;;;;;;18.80;99.90;;;;;;5074884;28;19977;-84
2022/06/22 06:08:23;;;;;;;;;;;18.80;99.90;;;;;;5073629;28;19999;-84
2022/06/22 06:10:48;;;;;;;;;;;18.90;99.90;;;;;;5073681;28;20034;-84
2022/06/22 06:13:17;;;;;;;;;;;18.90;99.90;;;;;;5075081;28;19946;-84
2022/06/22 06:15:43;;;;;;;;;;;19.00;99.90;;;;;;5074823;28;19955;-84
2022/06/22 06:18:13;;;;;;;;;;;19.00;99.90;;;;;;5073309;28;19904;-84
2022/06/22 06:20:40;;;;;;;;;;;19.10;99.90;;;;;;5074894;28;19905;-84
2022/06/22 06:23:09;;;;;;;;;;;19.20;99.90;;;;;;5075184;28;19911;-84
2022/06/22 06:28:40;;;;;;;;;;;19.30;99.90;;;;;;5032580;28;19913;-84
2022/06/22 06:31:07;;;;;;;;;;;19.40;99.90;;;;;;5066716;28;20368;-84
2022/06/22 06:33:35;;;;;;;;;;;19.50;99.90;;;;;;5075070;28;19916;-84
2022/06/22 06:36:18;;;;;;;;;;;19.50;99.90;;;;;;5073548;28;19998;-84
2022/06/22 06:38:50;;;;;;;;;;;19.60;99.90;;;;;;5073123;28;19905;-84
2022/06/22 06:41:25;;;;;;;;;;;19.70;99.90;;;;;;5073842;28;19904;-85
2022/06/22 06:43:59;;;;;;;;;;;19.80;99.90;;;;;;5072784;28;20360;-84
2022/06/22 06:46:30;;;;;;;;;;;19.80;99.90;;;;;;5073006;28;19923;-84
2022/06/22 06:48:59;;;;;;;;;;;20.00;99.90;;;;;;5074246;28;19908;-84
2022/06/22 06:51:26;;;;;;;;;;;20.00;99.90;;;;;;5075693;28;19991;-84
2022/06/22 06:53:59;;;;;;;;;;;20.10;99.90;;;;;;5077297;28;19908;-84
2022/06/22 06:56:28;;;;;;;;;;;20.20;99.90;;;;;;5077844;28;20272;-84
2022/06/22 06:58:56;;;;;;;;;;;20.40;99.90;;;;;;5078786;28;19904;-84
2022/06/22 07:01:23;;;;;;;;;;;20.50;99.90;;;;;;5078499;28;19987;-84
2022/06/22 07:03:51;;;;;;;;;;;20.70;99.90;;;;;;5078481;28;20398;-84
2022/06/22 07:06:17;;;;;;;;;;;20.80;99.90;;;;;;5077137;28;19927;-84
2022/06/22 07:08:47;;;;;;;;;;;20.90;99.90;;;;;;5078496;28;20352;-84
2022/06/22 07:11:31;;;;;;;;;;;20.90;99.90;;;;;;5077355;28;19910;-84
2022/06/22 07:14:00;;;;;;;;;;;20.90;99.90;;;;;;5076873;28;19904;-84
2022/06/22 07:16:26;;;;;;;;;;;21.00;99.90;;;;;;5078067;28;19947;-84
2022/06/22 07:19:03;;;;;;;;;;;21.10;99.90;;;;;;5078043;28;19927;-84
2022/06/22 07:21:36;;;;;;;;;;;21.30;99.90;;;;;;5077988;28;19981;-84
2022/06/22 07:24:13;;;;;;;;;;;21.30;99.90;;;;;;5078604;28;20007;-84
2022/06/22 07:26:42;;;;;;;;;;;21.40;99.90;;;;;;5076359;28;20288;-84
2022/06/22 07:29:25;;;;;;;;;;;21.40;99.90;;;;;;5076789;28;19904;-84
2022/06/22 07:31:59;;;;;;;;;;;21.30;99.90;;;;;;5077979;28;19912;-84
2022/06/22 07:34:30;;;;;;;;;;;21.40;99.90;;;;;;5077710;28;19916;-84
2022/06/22 07:37:03;;;;;;;;;;;21.60;99.90;;;;;;5076897;28;20253;-84
2022/06/22 07:39:42;;;;;;;;;;;21.80;99.90;;;;;;5077807;28;19954;-84
2022/06/22 07:42:11;;;;;;;;;;;21.90;99.90;;;;;;5076512;28;19927;-84
2022/06/22 07:44:37;;;;;;;;;;;21.80;99.90;;;;;;5076234;28;19909;-83
2022/06/22 07:47:10;;;;;;;;;;;21.70;99.90;;;;;;5076076;28;20292;-84
2022/06/22 07:49:46;;;;;;;;;;;21.60;99.90;;;;;;5077245;28;19905;-84
2022/06/22 07:52:13;;;;;;;;;;;21.60;99.90;;;;;;5076262;28;19915;-84
2022/06/22 07:54:39;;;;;;;;;;;21.50;99.90;;;;;;5077501;28;19911;-84
2022/06/22 07:57:14;;;;;;;;;;;21.40;99.90;;;;;;5075952;28;19904;-84
2022/06/22 07:59:48;;;;;;;;;;;21.40;99.90;;;;;;5077221;28;19904;-84
2022/06/22 08:02:15;;;;;;;;;;;21.40;99.90;;;;;;5075590;28;19904;-84
2022/06/22 08:05:01;;;;;;;;;;;21.40;99.90;;;;;;5075587;28;19904;-84
2022/06/22 08:07:31;;;;;;;;;;;21.50;99.90;;;;;;5076317;28;19962;-84
2022/06/22 08:10:00;;;;;;;;;;;21.60;99.90;;;;;;5075498;28;19904;-84
2022/06/22 08:12:28;;;;;;;;;;;21.60;99.90;;;;;;5076573;28;20265;-84
2022/06/22 08:14:54;;;;;;;;;;;21.60;99.90;;;;;;5076570;28;19904;-84
2022/06/22 08:17:25;;;;;;;;;;;21.60;99.90;;;;;;5076774;28;19904;-84
2022/06/22 08:19:51;;;;;;;;;;;21.60;99.90;;;;;;5075399;28;19952;-84
2022/06/22 08:22:16;;;;;;;;;;;21.60;99.90;;;;;;5075220;28;19962;-84
2022/06/22 08:24:45;;;;;;;;;;;21.60;99.90;;;;;;5075152;28;19950;-83
2022/06/22 08:27:13;;;;;;;;;;;21.60;99.90;;;;;;5075079;28;20367;-84
2022/06/22 08:29:39;;;;;;;;;;;21.70;99.90;;;;;;5075201;28;19904;-84
2022/06/22 08:32:19;;;;;;;;;;;21.70;99.90;;;;;;5075196;28;19918;-84
2022/06/22 08:34:48;;;;;;;;;;;21.70;99.90;;;;;;5076319;28;19904;-84
2022/06/22 08:37:17;;;;;;;;;;;21.70;99.90;;;;;;5076204;28;19974;-84
2022/06/22 08:39:48;;;;;;;;;;;21.70;99.90;;;;;;5074973;28;19904;-84
2022/06/22 08:42:37;;;;;;;;;;;21.70;99.90;;;;;;5075016;28;19904;-84
2022/06/22 08:45:18;;;;;;;;;;;21.70;99.90;;;;;;5076055;28;19911;-84
2022/06/22 08:47:43;;;;;;;;;;;21.70;99.90;;;;;;5075645;28;20281;-84
2022/06/22 08:50:27;;;;;;;;;;;21.80;99.90;;;;;;5075002;28;19908;-84
2022/06/22 08:52:58;;;;;;;;;;;21.80;99.90;;;;;;5074709;28;19978;-84
2022/06/22 08:55:40;;;;;;;;;;;21.90;99.90;;;;;;5076221;28;20388;-84
2022/06/22 08:58:26;;;;;;;;;;;21.90;99.90;;;;;;5074785;28;19905;-84
2022/06/22 09:01:10;;;;;;;;;;;22.00;99.90;;;;;;5075306;28;20405;-84
2022/06/22 09:03:39;;;;;;;;;;;22.00;99.90;;;;;;5074478;28;20007;-84
2022/06/22 09:06:22;;;;;;;;;;;22.10;99.90;;;;;;5075624;28;19905;-84
2022/06/22 09:09:06;;;;;;;;;;;22.10;99.90;;;;;;5075441;28;19915;-84
2022/06/22 09:11:47;;;;;;;;;;;22.10;99.90;;;;;;5074117;28;19955;-84
2022/06/22 09:14:13;;;;;;;;;;;22.20;99.90;;;;;;5073855;28;20352;-84
2022/06/22 09:16:57;;;;;;;;;;;22.40;99.90;;;;;;5073943;28;19912;-84
2022/06/22 09:19:41;;;;;;;;;;;22.60;99.90;;;;;;5073957;28;19904;-84
2022/06/22 09:22:19;;;;;;;;;;;22.60;99.90;;;;;;5075193;28;19911;-84
2022/06/22 09:24:44;;;;;;;;;;;22.70;99.90;;;;;;5073803;28;19984;-84
2022/06/22 09:27:17;;;;;;;;;;;22.80;99.90;;;;;;5075040;28;19999;-84
2022/06/22 09:30:12;;;;;;;;;;;22.90;99.90;;;;;;5075224;28;19904;-84
2022/06/22 09:32:40;;;;;;;;;;;22.90;99.90;;;;;;5020660;28;19917;-85
2022/06/22 09:35:32;;;;;;;;;;;23.00;99.90;;;;;;5073716;28;19905;-85
2022/06/22 09:38:00;;;;;;;;;;;23.00;99.90;;;;;;5073707;28;19910;-85
2022/06/22 09:40:39;;;;;;;;;;;23.10;99.90;;;;;;5073499;28;19905;-85
2022/06/22 09:43:24;;;;;;;;;;;23.20;99.90;;;;;;5073458;28;19948;-84
2022/06/22 09:45:49;;;;;;;;;;;23.20;99.90;;;;;;5074629;28;19905;-84
2022/06/22 09:48:15;;;;;;;;;;;23.30;99.90;;;;;;5074424;28;19915;-85
2022/06/22 09:50:40;;;;;;;;;;;23.40;99.90;;;;;;5074758;28;20273;-85
2022/06/22 09:53:09;;;;;;;;;;;23.40;99.90;;;;;;5073114;28;19914;-85
2022/06/22 09:58:51;;;;;;;;;;;23.50;99.90;;;;;;5074722;28;20273;-85
2022/06/22 10:01:26;;;;;;;;;;;23.60;99.90;;;;;;5072575;28;19904;-85
2022/06/22 10:03:55;;;;;;;;;;;23.60;99.90;;;;;;5073261;28;19915;-85
2022/06/22 10:06:23;;;;;;;;;;;23.70;99.30;;;;;;5072853;28;19904;-85
2022/06/22 10:08:52;;;;;;;;;;;23.70;98.80;;;;;;5073052;28;19934;-85
2022/06/22 10:11:37;;;;;;;;;;;23.80;99.30;;;;;;5073150;28;19971;-85
2022/06/22 10:14:15;;;;;;;;;;;23.80;99.90;;;;;;5073795;28;20356;-85
2022/06/22 10:16:58;;;;;;;;;;;23.90;99.90;;;;;;5075497;28;20046;-85
2022/06/22 10:19:30;;;;;;;;;;;23.90;99.90;;;;;;5074424;28;20021;-85
2022/06/22 10:21:55;;;;;;;;;;;24.00;99.90;;;;;;5072840;28;19912;-85
2022/06/22 10:27:44;;;;;;;;;;;23.90;99.90;;;;;;5074956;28;19910;-85
2022/06/22 10:30:18;;;;;;;;;;;23.90;99.90;;;;;;5073998;28;19911;-85
2022/06/22 10:32:50;;;;;;;;;;;23.90;99.90;;;;;;5073763;28;19912;-85
2022/06/22 10:35:15;;;;;;;;;;;24.00;99.90;;;;;;5073711;28;19904;-85
2022/06/22 10:37:41;;;;;;;;;;;24.00;99.90;;;;;;5072601;28;19915;-85
2022/06/22 10:45:08;;;;;;;;;;;24.10;99.90;;;;;;5072666;28;19905;-85
2022/06/22 10:46:09;;;;;;;;;;;24.20;99.10;;;;;;5073558;28;19987;-85
2022/06/22 10:48:34;;;;;;;;;;;24.30;99.00;;;;;;5072432;28;19912;-85
2022/06/22 10:51:19;;;;;;;;;;;24.40;99.20;;;;;;5072471;28;19911;-85
2022/06/22 10:53:57;;;;;;;;;;;24.40;98.70;;;;;;5072419;28;19911;-85
2022/06/22 10:56:41;;;;;;;;;;;24.60;98.50;;;;;;5072277;28;19904;-85
2022/06/22 10:59:07;;;;;;;;;;;24.60;97.90;;;;;;5072409;28;20413;-85
2022/06/22 11:01:41;;;;;;;;;;;24.60;97.60;;;;;;5072639;28;19904;-85
2022/06/22 11:04:25;;;;;;;;;;;24.60;98.30;;;;;;5073951;28;19905;-85
2022/06/22 11:07:10;;;;;;;;;;;24.60;98.50;;;;;;5072252;28;19912;-85
2022/06/22 11:09:54;;;;;;;;;;;24.60;98.40;;;;;;5072315;28;19912;-85
2022/06/22 11:12:33;;;;;;;;;;;24.70;98.80;;;;;;5073529;28;19911;-85
2022/06/22 11:15:01;;;;;;;;;;;24.70;98.80;;;;;;5072272;28;20357;-85
2022/06/22 11:17:47;;;;;;;;;;;24.80;98.60;;;;;;5073437;28;20377;-85
2022/06/22 11:20:12;;;;;;;;;;;24.80;98.80;;;;;;5072841;28;19958;-85
2022/06/22 11:22:42;;;;;;;;;;;24.80;98.60;;;;;;5072247;28;19904;-85
2022/06/22 11:25:07;;;;;;;;;;;24.90;98.30;;;;;;5072286;28;19979;-85
2022/06/22 11:30:51;;;;;;;;;;;24.90;98.80;;;;;;5073465;28;19911;-85
2022/06/22 11:33:37;;;;;;;;;;;24.90;99.40;;;;;;5073543;28;19916;-86
2022/06/22 11:51:54;;;;;;;;;;;24.30;99.90;;;;;;5036732;28;19908;-84
2022/06/22 11:54:27;;;;;;;;;;;24.20;99.90;;;;;;5074825;28;19987;-85
2022/06/22 11:57:14;;;;;;;;;;;24.00;99.50;;;;;;5076419;28;19911;-84
2022/06/22 11:59:58;;;;;;;;;;;23.80;98.90;;;;;;5076590;28;19904;-84
2022/06/22 12:02:29;;;;;;;;;;;23.50;99.90;;;;;;5077734;28;19908;-84
2022/06/22 12:05:13;;;;;;;;;;;23.10;99.90;;;;;;5077544;28;20349;-83
2022/06/22 12:07:48;;;;;;;;;;;22.80;99.90;;;;;;5075781;28;19954;-83
2022/06/22 12:10:20;;;;;;;;;;;22.60;99.90;;;;;;5077478;28;19940;-83
2022/06/22 12:12:46;;;;;;;;;;;22.50;99.90;;;;;;5076102;28;20276;-83
2022/06/22 12:15:27;;;;;;;;;;;22.50;99.90;;;;;;5075700;28;19961;-83
2022/06/22 12:17:57;;;;;;;;;;;22.60;99.90;;;;;;5077887;28;19904;-83
2022/06/22 12:20:51;;;;;;;;;;;22.70;99.90;;;;;;5076321;28;20369;-83
2022/06/22 12:23:29;;;;;;;;;;;22.90;99.90;;;;;;5022844;28;19953;-84
2022/06/22 12:25:54;;;;;;;;;;;23.10;99.90;;;;;;5075349;28;19904;-83
2022/06/22 12:28:23;;;;;;;;;;;23.30;99.90;;;;;;5075658;28;19957;-84
2022/06/22 12:30:59;;;;;;;;;;;23.40;99.90;;;;;;5075340;28;20260;-84
2022/06/22 12:33:36;;;;;;;;;;;23.50;99.90;;;;;;5076383;28;19977;-84
2022/06/22 12:36:01;;;;;;;;;;;23.60;99.90;;;;;;5075459;28;19939;-85
2022/06/22 12:38:27;;;;;;;;;;;23.60;99.90;;;;;;5075434;28;19966;-84
2022/06/22 12:40:59;;;;;;;;;;;23.60;99.90;;;;;;5075743;28;19911;-84
2022/06/22 12:43:25;;;;;;;;;;;23.60;99.90;;;;;;5075432;28;20007;-84
2022/06/22 12:45:52;;;;;;;;;;;23.60;99.90;;;;;;5076708;28;19906;-84
2022/06/22 12:48:45;;;;;;;;;;;23.60;99.90;;;;;;5076625;28;19908;-84
2022/06/22 12:51:21;;;;;;;;;;;23.60;99.90;;;;;;5075313;28;19953;-84
2022/06/22 12:53:51;;;;;;;;;;;23.50;99.90;;;;;;5074319;28;19948;-85
2022/06/22 12:56:23;;;;;;;;;;;23.60;99.90;;;;;;5074218;28;19985;-85
2022/06/22 12:58:55;;;;;;;;;;;23.60;99.90;;;;;;5074303;28;19904;-85
2022/06/22 13:01:21;;;;;;;;;;;23.50;99.90;;;;;;5074293;28;20261;-85
2022/06/22 13:03:49;;;;;;;;;;;23.50;99.90;;;;;;5074158;28;20356;-85
2022/06/22 13:06:15;;;;;;;;;;;23.50;99.90;;;;;;5074024;28;19905;-85
2022/06/22 13:08:41;;;;;;;;;;;23.50;99.90;;;;;;5073966;28;19915;-85
2022/06/22 13:11:12;;;;;;;;;;;23.50;99.90;;;;;;5075299;28;19904;-85
2022/06/22 13:13:43;;;;;;;;;;;23.60;99.90;;;;;;5074038;28;19905;-85
2022/06/22 13:16:09;;;;;;;;;;;23.70;99.90;;;;;;5073844;28;19912;-85
2022/06/22 13:18:34;;;;;;;;;;;23.80;99.90;;;;;;5073913;28;19904;-85
2022/06/22 13:21:09;;;;;;;;;;;24.10;99.90;;;;;;5073858;28;19957;-85
2022/06/22 13:23:54;;;;;;;;;;;24.30;99.90;;;;;;5073865;28;19904;-85
2022/06/22 13:26:39;;;;;;;;;;;24.50;99.90;;;;;;5075005;28;19911;-85
2022/06/22 13:29:04;;;;;;;;;;;24.60;99.90;;;;;;5074857;28;20380;-85
2022/06/22 13:31:31;;;;;;;;;;;24.50;99.90;;;;;;5073577;28;19912;-85
2022/06/22 13:34:00;;;;;;;;;;;24.60;99.90;;;;;;5074741;28;19904;-85
2022/06/22 13:36:35;;;;;;;;;;;24.60;99.90;;;;;;5073394;28;20249;-85
2022/06/22 13:39:18;;;;;;;;;;;24.70;99.90;;;;;;5074641;28;19904;-85
2022/06/22 13:41:56;;;;;;;;;;;24.80;99.90;;;;;;5074070;28;19904;-85
2022/06/22 13:44:42;;;;;;;;;;;25.00;99.90;;;;;;5073316;28;19908;-85
2022/06/22 13:47:23;;;;;;;;;;;25.20;99.90;;;;;;5055316;28;19963;-85
2022/06/22 13:49:58;;;;;;;;;;;25.20;98.80;;;;;;5071048;28;20288;-85
2022/06/22 13:52:42;;;;;;;;;;;25.20;98.70;;;;;;5090449;28;20308;-85
2022/06/22 13:55:17;;;;;;;;;;;25.20;98.80;;;;;;5074643;28;20043;-85
2022/06/22 13:57:46;;;;;;;;;;;25.20;99.30;;;;;;5087985;28;19954;-85
2022/06/22 14:00:13;;;;;;;;;;;25.20;99.90;;;;;;5089034;28;20273;-84
2022/06/22 14:02:58;;;;;;;;;;;25.40;99.20;;;;;;5075638;28;19909;-85
2022/06/22 14:05:27;;;;;;;;;;;25.40;99.50;;;;;;5073131;28;19958;-85
2022/06/22 14:08:11;;;;;;;;;;;25.40;99.00;;;;;;5079476;28;19912;-85
2022/06/22 14:10:46;;;;;;;;;;;25.40;98.60;;;;;;5074360;28;19940;-86
2022/06/22 14:13:25;;;;;;;;;;;25.40;98.40;;;;;;5074358;28;19958;-86
2022/06/22 14:15:50;;;;;;;;;;;25.40;98.50;;;;;;5072778;28;19954;-85
2022/06/22 14:18:16;;;;;;;;;;;25.40;97.60;;;;;;5073153;28;19912;-85
2022/06/22 14:21:04;;;;;;;;;;;25.30;98.00;;;;;;5072784;28;20371;-85
2022/06/22 14:23:37;;;;;;;;;;;25.20;97.10;;;;;;5074252;28;19908;-85
2022/06/22 14:26:12;;;;;;;;;;;25.10;97.20;;;;;;5054019;28;20434;-85
2022/06/22 14:29:03;;;;;;;;;;;25.00;96.10;;;;;;5087675;28;19908;-85
2022/06/22 14:31:45;;;;;;;;;;;24.80;93.80;;;;;;5069784;28;19912;-85
2022/06/22 14:34:22;;;;;;;;;;;24.80;95.10;;;;;;5072115;28;19917;-85
2022/06/22 14:36:53;;;;;;;;;;;24.70;95.20;;;;;;5060204;28;19936;-85
2022/06/22 14:39:19;;;;;;;;;;;24.70;94.70;;;;;;5069036;28;19911;-86
2022/06/22 14:41:50;;;;;;;;;;;24.60;94.80;;;;;;5079657;28;19912;-86
2022/06/22 14:44:18;;;;;;;;;;;24.60;92.60;;;;;;5075392;28;19908;-85
2022/06/22 14:47:03;;;;;;;;;;;24.50;93.90;;;;;;5080182;28;19915;-85
2022/06/22 14:49:32;;;;;;;;;;;24.40;93.90;;;;;;5076380;28;19904;-85
2022/06/22 14:52:04;;;;;;;;;;;24.20;93.00;;;;;;5080595;28;20272;-86
2022/06/22 14:54:43;;;;;;;;;;;24.10;92.70;;;;;;5072502;28;20090;-85
2022/06/22 14:57:17;;;;;;;;;;;24.00;94.40;;;;;;5074650;28;19908;-86
2022/06/22 15:00:05;;;;;;;;;;;24.00;92.90;;;;;;5076408;28;19936;-85
2022/06/22 15:02:59;;;;;;;;;;;23.90;93.20;;;;;;5076929;28;19947;-85
2022/06/22 15:05:28;;;;;;;;;;;23.90;94.10;;;;;;5082681;28;19950;-85
2022/06/22 15:08:01;;;;;;;;;;;23.90;93.70;;;;;;5098474;28;20351;-86
2022/06/22 15:10:33;;;;;;;;;;;23.90;94.30;;;;;;5096818;28;19904;-85
2022/06/22 15:13:14;;;;;;;;;;;23.90;94.70;;;;;;5086122;28;19972;-85
2022/06/22 15:15:40;;;;;;;;;;;23.90;94.70;;;;;;5056885;28;19905;-86
2022/06/22 15:18:21;;;;;;;;;;;23.90;94.90;;;;;;5056970;28;19912;-86
2022/06/22 15:20:52;;;;;;;;;;;23.90;95.30;;;;;;5056713;28;19912;-85
2022/06/22 15:23:30;;;;;;;;;;;23.80;95.20;;;;;;5056787;28;19905;-86